sensor_id;sensor_type;location;lat;lon;timestamp;pressure;altitude;pressure_sealevel;temperature;humidity
36502;BME280;25393;46.108;3.390;2023-05-10T00:02:21;97981.13;;;12.01;100.00
36502;BME280;25393;46.108;3.390;2023-05-10T00:04:48;97986.16;;;12.48;100.00
36502;BME280;25393;46.108;3.390;2023-05-10T00:07:14;97978.47;;;12.38;100.00
36502;BME280;25393;46.108;3.390;2023-05-10T00:09:43;97963.31;;;12.39;100.00
36502;BME280;25393;46.108;3.390;2023-05-10T00:12:10;97988.00;;;12.47;100.00
36502;BME280;25393;46.108;3.390;2023-05-10T00:14:36;97973.31;;;12.37;100.00
36502;BME280;25393;46.108;3.390;2023-05-10T00:17:03;97987.88;;;12.26;100.00
36502;BME280;25393;46.108;3.390;2023-05-10T00:19:29;97968.38;;;11.96;100.00
36502;BME280;25393;46.108;3.390;2023-05-10T00:22:00;97990.22;;;11.84;100.00
36502;BME280;25393;46.108;3.390;2023-05-10T00:24:29;97990.75;;;11.79;100.00
36502;BME280;25393;46.108;3.390;2023-05-10T00:26:58;97987.63;;;11.76;100.00
36502;BME280;25393;46.108;3.390;2023-05-10T00:29:25;97973.91;;;11.41;100.00
36502;BME280;25393;46.108;3.390;2023-05-10T00:31:54;97987.00;;;11.43;100.00
36502;BME280;25393;46.108;3.390;2023-05-10T00:34:20;97984.22;;;11.36;100.00
36502;BME280;25393;46.108;3.390;2023-05-10T00:36:47;97990.19;;;11.38;100.00
36502;BME280;25393;46.108;3.390;2023-05-10T00:39:14;97982.97;;;11.24;100.00
36502;BME280;25393;46.108;3.390;2023-05-10T00:41:40;98010.09;;;11.34;100.00
36502;BME280;25393;46.108;3.390;2023-05-10T00:44:07;98011.09;;;11.33;100.00
36502;BME280;25393;46.108;3.390;2023-05-10T00:46:34;98003.84;;;11.27;100.00
36502;BME280;25393;46.108;3.390;2023-05-10T00:49:00;98004.03;;;11.26;100.00
36502;BME280;25393;46.108;3.390;2023-05-10T00:51:30;97969.44;;;10.72;100.00
36502;BME280;25393;46.108;3.390;2023-05-10T00:54:00;98007.19;;;10.82;100.00
36502;BME280;25393;46.108;3.390;2023-05-10T00:56:31;97980.72;;;10.66;100.00
36502;BME280;25393;46.108;3.390;2023-05-10T00:59:00;98015.16;;;10.74;100.00
36502;BME280;25393;46.108;3.390;2023-05-10T01:01:31;98011.38;;;10.61;100.00
36502;BME280;25393;46.108;3.390;2023-05-10T01:04:01;98012.22;;;10.53;100.00
36502;BME280;25393;46.108;3.390;2023-05-10T01:06:32;97992.94;;;10.20;100.00
36502;BME280;25393;46.108;3.390;2023-05-10T01:09:01;98011.25;;;10.14;100.00
36502;BME280;25393;46.108;3.390;2023-05-10T01:11:33;98013.41;;;10.10;100.00
36502;BME280;25393;46.108;3.390;2023-05-10T01:14:01;98001.00;;;9.94;100.00
36502;BME280;25393;46.108;3.390;2023-05-10T01:16:32;98007.28;;;10.01;100.00
36502;BME280;25393;46.108;3.390;2023-05-10T01:19:01;98012.78;;;10.16;100.00
36502;BME280;25393;46.108;3.390;2023-05-10T01:21:33;98014.75;;;10.14;100.00
36502;BME280;25393;46.108;3.390;2023-05-10T01:38:35;98014.91;;;9.96;100.00
36502;BME280;25393;46.108;3.390;2023-05-10T01:41:18;98014.91;;;9.96;100.00
36502;BME280;25393;46.108;3.390;2023-05-10T01:44:18;98015.75;;;10.05;100.00
36502;BME280;25393;46.108;3.390;2023-05-10T01:46:57;98009.47;;;10.30;100.00
36502;BME280;25393;46.108;3.390;2023-05-10T01:49:34;97998.19;;;10.28;100.00
36502;BME280;25393;46.108;3.390;2023-05-10T01:52:06;98013.75;;;10.47;100.00
36502;BME280;25393;46.108;3.390;2023-05-10T01:54:35;98024.97;;;10.49;100.00
36502;BME280;25393;46.108;3.390;2023-05-10T01:57:06;98024.78;;;10.67;100.00
36502;BME280;25393;46.108;3.390;2023-05-10T01:59:36;98021.66;;;10.56;100.00
36502;BME280;25393;46.108;3.390;2023-05-10T02:02:07;98025.84;;;10.34;100.00
36502;BME280;25393;46.108;3.390;2023-05-10T02:04:41;98035.09;;;10.46;100.00
36502;BME280;25393;46.108;3.390;2023-05-10T02:07:08;98020.38;;;10.51;100.00
36502;BME280;25393;46.108;3.390;2023-05-10T02:09:36;98032.59;;;10.61;100.00
36502;BME280;25393;46.108;3.390;2023-05-10T02:12:05;98016.53;;;10.46;100.00
36502;BME280;25393;46.108;3.390;2023-05-10T02:14:36;98006.94;;;10.45;100.00
36502;BME280;25393;46.108;3.390;2023-05-10T02:17:05;98029.94;;;10.52;100.00
36502;BME280;25393;46.108;3.390;2023-05-10T02:19:38;98045.53;;;10.31;100.00
36502;BME280;25393;46.108;3.390;2023-05-10T02:22:06;98042.72;;;10.33;100.00
36502;BME280;25393;46.108;3.390;2023-05-10T02:24:34;98033.47;;;10.29;100.00
36502;BME280;25393;46.108;3.390;2023-05-10T02:27:06;98043.88;;;10.38;100.00
36502;BME280;25393;46.108;3.390;2023-05-10T02:29:36;98036.78;;;10.31;100.00
36502;BME280;25393;46.108;3.390;2023-05-10T02:32:06;98027.66;;;10.33;100.00
36502;BME280;25393;46.108;3.390;2023-05-10T02:34:35;98049.81;;;10.48;100.00
36502;BME280;25393;46.108;3.390;2023-05-10T02:37:05;98029.50;;;10.41;100.00
36502;BME280;25393;46.108;3.390;2023-05-10T02:39:35;98034.25;;;10.45;100.00
36502;BME280;25393;46.108;3.390;2023-05-10T02:42:05;98049.19;;;10.46;100.00
36502;BME280;25393;46.108;3.390;2023-05-10T02:44:36;98046.06;;;10.27;100.00
36502;BME280;25393;46.108;3.390;2023-05-10T02:47:06;98043.75;;;10.16;100.00
36502;BME280;25393;46.108;3.390;2023-05-10T02:49:36;98039.38;;;10.07;100.00
36502;BME280;25393;46.108;3.390;2023-05-10T02:52:04;98042.88;;;9.99;100.00
36502;BME280;25393;46.108;3.390;2023-05-10T02:54:54;98056.81;;;10.17;100.00
36502;BME280;25393;46.108;3.390;2023-05-10T02:57:26;98044.34;;;9.93;100.00
36502;BME280;25393;46.108;3.390;2023-05-10T02:59:54;98049.31;;;9.96;100.00
36502;BME280;25393;46.108;3.390;2023-05-10T03:02:21;98040.06;;;10.09;100.00
36502;BME280;25393;46.108;3.390;2023-05-10T03:04:48;98058.63;;;10.25;100.00
36502;BME280;25393;46.108;3.390;2023-05-10T03:07:14;98065.56;;;10.18;100.00
36502;BME280;25393;46.108;3.390;2023-05-10T03:09:42;98072.38;;;10.20;100.00
36502;BME280;25393;46.108;3.390;2023-05-10T03:12:29;98083.41;;;9.99;100.00
36502;BME280;25393;46.108;3.390;2023-05-10T03:18:12;98061.38;;;9.75;100.00
36502;BME280;25393;46.108;3.390;2023-05-10T03:20:43;98057.41;;;9.71;100.00
36502;BME280;25393;46.108;3.390;2023-05-10T03:25:46;98065.50;;;9.85;100.00
36502;BME280;25393;46.108;3.390;2023-05-10T03:28:15;98059.06;;;9.80;100.00
36502;BME280;25393;46.108;3.390;2023-05-10T03:30:43;98052.41;;;9.68;100.00
36502;BME280;25393;46.108;3.390;2023-05-10T03:33:10;98067.38;;;9.85;100.00
36502;BME280;25393;46.108;3.390;2023-05-10T03:35:37;98042.00;;;9.66;100.00
36502;BME280;25393;46.108;3.390;2023-05-10T03:38:03;98077.94;;;9.85;100.00
36502;BME280;25393;46.108;3.390;2023-05-10T03:40:33;98049.78;;;9.68;100.00
36502;BME280;25393;46.108;3.390;2023-05-10T03:42:59;98043.22;;;9.88;100.00
36502;BME280;25393;46.108;3.390;2023-05-10T03:45:26;98078.13;;;10.08;100.00
36502;BME280;25393;46.108;3.390;2023-05-10T03:47:53;98065.56;;;10.01;100.00
36502;BME280;25393;46.108;3.390;2023-05-10T03:50:20;98044.66;;;9.82;100.00
36502;BME280;25393;46.108;3.390;2023-05-10T03:52:47;98072.00;;;10.07;100.00
36502;BME280;25393;46.108;3.390;2023-05-10T03:55:14;98048.97;;;9.67;100.00
36502;BME280;25393;46.108;3.390;2023-05-10T03:57:40;98073.47;;;9.85;100.00
36502;BME280;25393;46.108;3.390;2023-05-10T04:00:10;98065.53;;;9.77;100.00
36502;BME280;25393;46.108;3.390;2023-05-10T04:02:38;98045.84;;;9.88;100.00
36502;BME280;25393;46.108;3.390;2023-05-10T04:05:05;98055.13;;;10.08;100.00
36502;BME280;25393;46.108;3.390;2023-05-10T04:07:34;98057.44;;;10.11;100.00
36502;BME280;25393;46.108;3.390;2023-05-10T04:10:00;98062.44;;;10.14;100.00
36502;BME280;25393;46.108;3.390;2023-05-10T04:12:27;98054.63;;;10.04;100.00
36502;BME280;25393;46.108;3.390;2023-05-10T04:14:53;98044.34;;;9.85;100.00
36502;BME280;25393;46.108;3.390;2023-05-10T04:17:20;98048.63;;;9.78;100.00
36502;BME280;25393;46.108;3.390;2023-05-10T04:19:47;98046.31;;;9.75;100.00
36502;BME280;25393;46.108;3.390;2023-05-10T04:22:13;98044.03;;;9.88;100.00
36502;BME280;25393;46.108;3.390;2023-05-10T04:24:40;98058.78;;;9.99;100.00
36502;BME280;25393;46.108;3.390;2023-05-10T04:27:06;98051.47;;;9.77;100.00
36502;BME280;25393;46.108;3.390;2023-05-10T04:29:35;98047.16;;;10.00;100.00
36502;BME280;25393;46.108;3.390;2023-05-10T04:32:01;98054.78;;;10.03;100.00
36502;BME280;25393;46.108;3.390;2023-05-10T04:34:28;98033.28;;;9.98;100.00
36502;BME280;25393;46.108;3.390;2023-05-10T04:36:54;98042.06;;;9.98;100.00
36502;BME280;25393;46.108;3.390;2023-05-10T04:39:21;98029.94;;;9.80;100.00
36502;BME280;25393;46.108;3.390;2023-05-10T04:41:47;98053.47;;;10.07;100.00
36502;BME280;25393;46.108;3.390;2023-05-10T04:44:14;98055.78;;;9.94;100.00
36502;BME280;25393;46.108;3.390;2023-05-10T04:46:40;98066.03;;;9.89;100.00
36502;BME280;25393;46.108;3.390;2023-05-10T04:49:07;98074.13;;;9.79;100.00
36502;BME280;25393;46.108;3.390;2023-05-10T04:51:43;98061.09;;;10.02;100.00
36502;BME280;25393;46.108;3.390;2023-05-10T04:54:12;98067.72;;;10.06;100.00
36502;BME280;25393;46.108;3.390;2023-05-10T04:56:38;98054.97;;;10.01;100.00
36502;BME280;25393;46.108;3.390;2023-05-10T04:59:08;98073.03;;;10.14;100.00
36502;BME280;25393;46.108;3.390;2023-05-10T05:01:39;98066.09;;;10.37;100.00
36502;BME280;25393;46.108;3.390;2023-05-10T05:04:12;98048.69;;;10.19;100.00
36502;BME280;25393;46.108;3.390;2023-05-10T05:06:42;98064.59;;;10.19;100.00
36502;BME280;25393;46.108;3.390;2023-05-10T05:09:09;98067.91;;;10.29;100.00
36502;BME280;25393;46.108;3.390;2023-05-10T05:11:39;98069.72;;;10.28;100.00
36502;BME280;25393;46.108;3.390;2023-05-10T05:14:10;98034.47;;;10.20;100.00
36502;BME280;25393;46.108;3.390;2023-05-10T05:16:38;98070.88;;;10.42;100.00
36502;BME280;25393;46.108;3.390;2023-05-10T05:19:04;98073.03;;;10.55;100.00
36502;BME280;25393;46.108;3.390;2023-05-10T05:21:31;98045.88;;;10.36;100.00
36502;BME280;25393;46.108;3.390;2023-05-10T05:23:58;98051.84;;;10.30;100.00
36502;BME280;25393;46.108;3.390;2023-05-10T05:26:26;98050.88;;;10.23;100.00
36502;BME280;25393;46.108;3.390;2023-05-10T05:28:52;98063.94;;;10.17;100.00
36502;BME280;25393;46.108;3.390;2023-05-10T05:31:21;98075.53;;;10.24;100.00
36502;BME280;25393;46.108;3.390;2023-05-10T05:33:47;98061.59;;;10.22;100.00
36502;BME280;25393;46.108;3.390;2023-05-10T05:36:14;98095.38;;;10.36;100.00
36502;BME280;25393;46.108;3.390;2023-05-10T05:38:40;98091.56;;;10.38;100.00
36502;BME280;25393;46.108;3.390;2023-05-10T05:41:09;98094.25;;;10.30;100.00
36502;BME280;25393;46.108;3.390;2023-05-10T05:43:39;98085.63;;;10.36;100.00
36502;BME280;25393;46.108;3.390;2023-05-10T05:46:06;98085.78;;;10.35;100.00
36502;BME280;25393;46.108;3.390;2023-05-10T05:48:32;98085.63;;;10.36;100.00
36502;BME280;25393;46.108;3.390;2023-05-10T05:50:59;98099.53;;;10.46;100.00
36502;BME280;25393;46.108;3.390;2023-05-10T05:53:25;98094.19;;;10.63;100.00
36502;BME280;25393;46.108;3.390;2023-05-10T05:55:56;98076.16;;;10.58;100.00
36502;BME280;25393;46.108;3.390;2023-05-10T05:58:24;98100.94;;;10.97;100.00
36502;BME280;25393;46.108;3.390;2023-05-10T06:00:51;98088.97;;;11.01;100.00
36502;BME280;25393;46.108;3.390;2023-05-10T06:03:18;98084.34;;;11.03;96.16
36502;BME280;25393;46.108;3.390;2023-05-10T06:05:45;98111.97;;;11.25;99.48
36502;BME280;25393;46.108;3.390;2023-05-10T06:08:14;98076.13;;;10.82;100.00
36502;BME280;25393;46.108;3.390;2023-05-10T06:10:41;98112.19;;;11.08;100.00
36502;BME280;25393;46.108;3.390;2023-05-10T06:13:14;98108.16;;;11.20;100.00
36502;BME280;25393;46.108;3.390;2023-05-10T06:15:44;98105.47;;;11.36;100.00
36502;BME280;25393;46.108;3.390;2023-05-10T06:18:14;98102.50;;;11.31;100.00
36502;BME280;25393;46.108;3.390;2023-05-10T06:20:41;98087.13;;;11.18;100.00
36502;BME280;25393;46.108;3.390;2023-05-10T06:23:11;98111.66;;;11.59;100.00
36502;BME280;25393;46.108;3.390;2023-05-10T06:25:39;98097.19;;;11.62;100.00
36502;BME280;25393;46.108;3.390;2023-05-10T06:28:05;98076.97;;;11.61;100.00
36502;BME280;25393;46.108;3.390;2023-05-10T06:30:32;98106.59;;;11.80;100.00
36502;BME280;25393;46.108;3.390;2023-05-10T06:32:58;98079.84;;;11.51;100.00
36502;BME280;25393;46.108;3.390;2023-05-10T06:35:25;98111.78;;;11.74;100.00
36502;BME280;25393;46.108;3.390;2023-05-10T06:37:52;98113.59;;;11.65;100.00
36502;BME280;25393;46.108;3.390;2023-05-10T06:40:19;98116.09;;;11.67;100.00
36502;BME280;25393;46.108;3.390;2023-05-10T06:42:46;98113.09;;;11.78;100.00
36502;BME280;25393;46.108;3.390;2023-05-10T06:45:16;98112.38;;;11.84;100.00
36502;BME280;25393;46.108;3.390;2023-05-10T06:47:46;98114.81;;;11.93;100.00
36502;BME280;25393;46.108;3.390;2023-05-10T06:50:16;98088.09;;;11.64;100.00
36502;BME280;25393;46.108;3.390;2023-05-10T06:52:42;98098.72;;;11.56;100.00
36502;BME280;25393;46.108;3.390;2023-05-10T06:55:16;98123.22;;;11.66;100.00
36502;BME280;25393;46.108;3.390;2023-05-10T06:57:46;98103.00;;;11.65;100.00
36502;BME280;25393;46.108;3.390;2023-05-10T07:00:17;98129.72;;;11.64;99.05
36502;BME280;25393;46.108;3.390;2023-05-10T07:02:46;98127.22;;;11.62;100.00
36502;BME280;25393;46.108;3.390;2023-05-10T07:05:13;98135.53;;;11.59;100.00
36502;BME280;25393;46.108;3.390;2023-05-10T07:07:47;98109.84;;;11.51;100.00
36502;BME280;25393;46.108;3.390;2023-05-10T07:10:15;98139.00;;;11.68;99.36
36502;BME280;25393;46.108;3.390;2023-05-10T07:12:42;98110.13;;;11.73;99.35
36502;BME280;25393;46.108;3.390;2023-05-10T07:15:11;98132.50;;;11.78;95.96
36502;BME280;25393;46.108;3.390;2023-05-10T07:17:37;98110.59;;;11.68;95.11
36502;BME280;25393;46.108;3.390;2023-05-10T07:20:04;98118.44;;;11.62;94.75
36502;BME280;25393;46.108;3.390;2023-05-10T07:22:31;98116.09;;;11.67;91.40
36502;BME280;25393;46.108;3.390;2023-05-10T07:24:57;98118.22;;;11.79;90.21
36502;BME280;25393;46.108;3.390;2023-05-10T07:27:25;98112.78;;;11.65;90.43
36502;BME280;25393;46.108;3.390;2023-05-10T07:29:52;98123.50;;;11.40;90.52
36502;BME280;25393;46.108;3.390;2023-05-10T07:32:19;98138.44;;;11.41;86.78
36502;BME280;25393;46.108;3.390;2023-05-10T07:34:46;98138.91;;;11.45;95.36
36502;BME280;25393;46.108;3.390;2023-05-10T07:37:12;98111.59;;;11.36;86.85
36502;BME280;25393;46.108;3.390;2023-05-10T07:39:41;98101.16;;;11.35;93.13
36502;BME280;25393;46.108;3.390;2023-05-10T07:42:07;98132.63;;;11.85;88.64
36502;BME280;25393;46.108;3.390;2023-05-10T07:44:34;98122.63;;;11.95;88.58
36502;BME280;25393;46.108;3.390;2023-05-10T07:47:02;98099.47;;;12.26;84.88
36502;BME280;25393;46.108;3.390;2023-05-10T07:49:28;98117.00;;;12.58;79.68
36502;BME280;25393;46.108;3.390;2023-05-10T07:51:55;98143.41;;;12.97;85.88
36502;BME280;25393;46.108;3.390;2023-05-10T07:54:21;98108.59;;;12.69;82.65
36502;BME280;25393;46.108;3.390;2023-05-10T07:56:48;98142.19;;;12.85;82.16
36502;BME280;25393;46.108;3.390;2023-05-10T07:59:17;98148.75;;;12.37;81.55
36502;BME280;25393;46.108;3.390;2023-05-10T08:01:45;98132.25;;;11.96;81.74
36502;BME280;25393;46.108;3.390;2023-05-10T08:04:12;98133.47;;;11.85;84.82
36502;BME280;25393;46.108;3.390;2023-05-10T08:06:41;98135.47;;;11.83;82.86
36502;BME280;25393;46.108;3.390;2023-05-10T08:09:08;98121.88;;;11.78;83.82
36502;BME280;25393;46.108;3.390;2023-05-10T08:11:35;98147.28;;;12.03;84.43
36502;BME280;25393;46.108;3.390;2023-05-10T08:14:05;98134.22;;;11.94;83.90
36502;BME280;25393;46.108;3.390;2023-05-10T08:16:33;98153.66;;;11.94;83.45
36502;BME280;25393;46.108;3.390;2023-05-10T08:19:00;98125.63;;;11.53;80.68
36502;BME280;25393;46.108;3.390;2023-05-10T08:21:27;98152.31;;;11.51;80.97
36502;BME280;25393;46.108;3.390;2023-05-10T08:23:54;98141.47;;;11.77;82.56
36502;BME280;25393;46.108;3.390;2023-05-10T08:26:20;98134.63;;;12.14;83.86
36502;BME280;25393;46.108;3.390;2023-05-10T08:28:48;98140.22;;;12.64;82.59
36502;BME280;25393;46.108;3.390;2023-05-10T08:31:17;98119.81;;;12.57;74.78
36502;BME280;25393;46.108;3.390;2023-05-10T08:33:47;98118.16;;;12.41;76.39
36502;BME280;25393;46.108;3.390;2023-05-10T08:36:16;98110.13;;;12.26;75.51
36502;BME280;25393;46.108;3.390;2023-05-10T08:38:50;98135.44;;;12.14;75.51
36502;BME280;25393;46.108;3.390;2023-05-10T08:41:20;98118.34;;;11.86;77.60
36502;BME280;25393;46.108;3.390;2023-05-10T08:43:54;98142.50;;;12.67;79.76
36502;BME280;25393;46.108;3.390;2023-05-10T08:46:23;98123.88;;;13.05;75.44
36502;BME280;25393;46.108;3.390;2023-05-10T08:48:51;98131.66;;;13.06;70.79
36502;BME280;25393;46.108;3.390;2023-05-10T08:51:21;98140.09;;;12.95;73.34
36502;BME280;25393;46.108;3.390;2023-05-10T08:53:48;98145.09;;;12.75;74.72
36502;BME280;25393;46.108;3.390;2023-05-10T08:56:16;98120.13;;;12.62;77.37
36502;BME280;25393;46.108;3.390;2023-05-10T08:58:47;98118.66;;;12.74;74.25
36502;BME280;25393;46.108;3.390;2023-05-10T09:01:16;98148.53;;;12.98;76.09
36502;BME280;25393;46.108;3.390;2023-05-10T09:03:47;98129.94;;;12.61;72.98
36502;BME280;25393;46.108;3.390;2023-05-10T09:06:17;98148.38;;;12.63;72.26
36502;BME280;25393;46.108;3.390;2023-05-10T09:08:47;98135.63;;;12.58;73.94
36502;BME280;25393;46.108;3.390;2023-05-10T09:11:17;98140.09;;;12.58;74.80
36502;BME280;25393;46.108;3.390;2023-05-10T09:13:48;98136.44;;;12.96;71.93
36502;BME280;25393;46.108;3.390;2023-05-10T09:16:17;98134.53;;;13.78;68.10
36502;BME280;25393;46.108;3.390;2023-05-10T09:18:47;98136.06;;;13.87;71.00
36502;BME280;25393;46.108;3.390;2023-05-10T09:21:15;98132.06;;;14.33;68.83
36502;BME280;25393;46.108;3.390;2023-05-10T09:23:46;98127.97;;;14.52;66.81
36502;BME280;25393;46.108;3.390;2023-05-10T09:26:16;98109.66;;;14.07;62.36
36502;BME280;25393;46.108;3.390;2023-05-10T09:28:56;98137.78;;;13.29;68.22
36502;BME280;25393;46.108;3.390;2023-05-10T09:31:23;98136.06;;;12.99;73.64
36502;BME280;25393;46.108;3.390;2023-05-10T09:33:52;98126.38;;;13.50;70.96
36502;BME280;25393;46.108;3.390;2023-05-10T09:36:19;98111.00;;;13.81;69.59
36502;BME280;25393;46.108;3.390;2023-05-10T09:38:51;98131.81;;;14.71;66.04
36502;BME280;25393;46.108;3.390;2023-05-10T09:41:22;98129.69;;;14.60;63.27
36502;BME280;25393;46.108;3.390;2023-05-10T09:43:49;98147.38;;;14.25;67.17
36502;BME280;25393;46.108;3.390;2023-05-10T09:46:16;98135.25;;;14.08;69.47
36502;BME280;25393;46.108;3.390;2023-05-10T09:48:47;98101.69;;;13.56;66.63
36502;BME280;25393;46.108;3.390;2023-05-10T09:53:48;98139.41;;;14.10;68.84
36502;BME280;25393;46.108;3.390;2023-05-10T09:56:36;98125.03;;;14.47;65.36
36502;BME280;25393;46.108;3.390;2023-05-10T09:59:09;98114.47;;;14.18;67.50
36502;BME280;25393;46.108;3.390;2023-05-10T10:01:37;98111.06;;;13.88;68.50
36502;BME280;25393;46.108;3.390;2023-05-10T10:04:05;98135.56;;;13.98;67.85
36502;BME280;25393;46.108;3.390;2023-05-10T10:06:37;98134.59;;;14.20;70.34
36502;BME280;25393;46.108;3.390;2023-05-10T10:09:07;98136.31;;;14.28;69.09
36502;BME280;25393;46.108;3.390;2023-05-10T10:11:38;98096.06;;;14.01;63.72
36502;BME280;25393;46.108;3.390;2023-05-10T10:14:05;98128.84;;;14.38;64.78
36502;BME280;25393;46.108;3.390;2023-05-10T10:16:32;98114.69;;;15.14;63.76
36502;BME280;25393;46.108;3.390;2023-05-10T10:18:59;98094.19;;;16.16;63.21
36502;BME280;25393;46.108;3.390;2023-05-10T10:21:26;98073.88;;;16.22;59.39
36502;BME280;25393;46.108;3.390;2023-05-10T10:23:53;98115.25;;;15.72;57.68
36502;BME280;25393;46.108;3.390;2023-05-10T10:26:20;98120.81;;;15.08;60.74
36502;BME280;25393;46.108;3.390;2023-05-10T10:29:16;98108.56;;;14.22;63.52
36502;BME280;25393;46.108;3.390;2023-05-10T10:34:46;98113.34;;;14.69;65.78
36502;BME280;25393;46.108;3.390;2023-05-10T10:37:13;98103.69;;;15.58;63.59
36502;BME280;25393;46.108;3.390;2023-05-10T10:39:42;98123.06;;;16.54;60.55
36502;BME280;25393;46.108;3.390;2023-05-10T10:42:09;98109.09;;;16.65;59.29
36502;BME280;25393;46.108;3.390;2023-05-10T10:44:36;98095.47;;;16.40;58.69
36502;BME280;25393;46.108;3.390;2023-05-10T10:49:52;98103.09;;;15.35;60.39
36502;BME280;25393;46.108;3.390;2023-05-10T10:52:31;98124.47;;;15.00;60.54
36502;BME280;25393;46.108;3.390;2023-05-10T10:57:51;98123.44;;;15.02;62.48
36502;BME280;25393;46.108;3.390;2023-05-10T11:00:19;98113.75;;;15.28;58.94
36502;BME280;25393;46.108;3.390;2023-05-10T11:07:56;98105.72;;;16.23;56.25
36502;BME280;25393;46.108;3.390;2023-05-10T11:10:24;98106.59;;;15.70;61.46
36502;BME280;25393;46.108;3.390;2023-05-10T11:12:52;98097.28;;;14.90;61.78
36502;BME280;25393;46.108;3.390;2023-05-10T11:15:19;98077.38;;;14.93;60.99
36502;BME280;25393;46.108;3.390;2023-05-10T11:17:50;98060.03;;;14.48;61.49
36502;BME280;25393;46.108;3.390;2023-05-10T11:20:21;98092.63;;;14.29;62.14
36502;BME280;25393;46.108;3.390;2023-05-10T11:22:52;98096.06;;;14.01;63.66
36502;BME280;25393;46.108;3.390;2023-05-10T11:25:19;98101.81;;;14.41;64.51
36502;BME280;25393;46.108;3.390;2023-05-10T11:27:48;98097.88;;;15.20;60.28
36502;BME280;25393;46.108;3.390;2023-05-10T11:30:18;98091.13;;;15.59;60.82
36502;BME280;25393;46.108;3.390;2023-05-10T11:32:45;98082.72;;;15.62;56.11
36502;BME280;25393;46.108;3.390;2023-05-10T11:35:14;98052.56;;;15.74;56.62
36502;BME280;25393;46.108;3.390;2023-05-10T11:37:47;98074.53;;;15.76;56.93
36502;BME280;25393;46.108;3.390;2023-05-10T11:40:14;98090.06;;;16.07;54.86
36502;BME280;25393;46.108;3.390;2023-05-10T11:42:42;98060.66;;;16.01;56.74
36502;BME280;25393;46.108;3.390;2023-05-10T11:45:09;98093.56;;;16.08;55.46
36502;BME280;25393;46.108;3.390;2023-05-10T11:47:35;98070.03;;;15.77;58.81
36502;BME280;25393;46.108;3.390;2023-05-10T11:50:03;98077.63;;;16.60;55.53
36502;BME280;25393;46.108;3.390;2023-05-10T11:52:35;98063.19;;;16.81;54.56
36502;BME280;25393;46.108;3.390;2023-05-10T11:55:02;98057.03;;;16.67;55.21
36502;BME280;25393;46.108;3.390;2023-05-10T11:57:29;98087.09;;;16.56;55.76
36502;BME280;25393;46.108;3.390;2023-05-10T11:59:58;98071.00;;;16.49;54.91
36502;BME280;25393;46.108;3.390;2023-05-10T12:02:24;98063.38;;;16.46;55.75
36502;BME280;25393;46.108;3.390;2023-05-10T12:04:51;98055.56;;;16.25;55.54
36502;BME280;25393;46.108;3.390;2023-05-10T12:07:18;98073.69;;;16.63;56.98
36502;BME280;25393;46.108;3.390;2023-05-10T12:10:11;98075.78;;;16.67;57.28
36502;BME280;25393;46.108;3.390;2023-05-10T12:12:48;98059.88;;;16.79;56.61
36502;BME280;25393;46.108;3.390;2023-05-10T12:15:20;98066.69;;;16.75;58.33
36502;BME280;25393;46.108;3.390;2023-05-10T12:17:50;98060.72;;;16.66;57.40
36502;BME280;25393;46.108;3.390;2023-05-10T12:20:21;98073.06;;;16.87;57.71
36502;BME280;25393;46.108;3.390;2023-05-10T12:22:50;98066.91;;;16.67;57.11
36502;BME280;25393;46.108;3.390;2023-05-10T12:25:23;98069.78;;;16.59;58.96
36502;BME280;25393;46.108;3.390;2023-05-10T12:27:55;98061.91;;;17.03;57.40
36502;BME280;25393;46.108;3.390;2023-05-10T12:30:22;98061.06;;;17.22;58.14
36502;BME280;25393;46.108;3.390;2023-05-10T12:32:49;98036.19;;;16.36;58.25
36502;BME280;25393;46.108;3.390;2023-05-10T12:35:19;98040.28;;;15.93;58.09
36502;BME280;25393;46.108;3.390;2023-05-10T12:37:51;98048.34;;;15.52;58.71
36502;BME280;25393;46.108;3.390;2023-05-10T12:40:17;98022.19;;;16.08;60.10
36502;BME280;25393;46.108;3.390;2023-05-10T12:42:44;98026.31;;;16.43;58.38
36502;BME280;25393;46.108;3.390;2023-05-10T12:45:14;98048.97;;;17.64;59.07
36502;BME280;25393;46.108;3.390;2023-05-10T12:47:43;98046.19;;;18.78;55.46
36502;BME280;25393;46.108;3.390;2023-05-10T12:50:10;98037.16;;;18.90;53.15
36502;BME280;25393;46.108;3.390;2023-05-10T12:52:37;98015.31;;;18.87;55.31
36502;BME280;25393;46.108;3.390;2023-05-10T12:55:04;98013.16;;;18.53;51.83
36502;BME280;25393;46.108;3.390;2023-05-10T12:57:30;98019.41;;;17.77;51.59
36502;BME280;25393;46.108;3.390;2023-05-10T12:59:57;98018.25;;;17.67;52.06
36502;BME280;25393;46.108;3.390;2023-05-10T13:02:23;98013.81;;;18.17;55.46
36502;BME280;25393;46.108;3.390;2023-05-10T13:04:50;98023.75;;;19.09;51.05
36502;BME280;25393;46.108;3.390;2023-05-10T13:07:17;98005.22;;;18.08;55.08
36502;BME280;25393;46.108;3.390;2023-05-10T13:09:43;98012.63;;;17.30;55.09
36502;BME280;25393;46.108;3.390;2023-05-10T13:12:13;98019.28;;;17.08;53.66
36502;BME280;25393;46.108;3.390;2023-05-10T13:14:48;98033.28;;;17.04;53.99
36502;BME280;25393;46.108;3.390;2023-05-10T13:17:14;98016.06;;;16.67;58.06
36502;BME280;25393;46.108;3.390;2023-05-10T13:19:49;98029.56;;;17.75;58.43
36502;BME280;25393;46.108;3.390;2023-05-10T13:22:19;98016.09;;;17.82;57.92
36502;BME280;25393;46.108;3.390;2023-05-10T13:25:02;98009.06;;;19.29;56.87
36502;BME280;25393;46.108;3.390;2023-05-10T13:27:28;97979.81;;;19.99;48.67
36502;BME280;25393;46.108;3.390;2023-05-10T13:29:55;98010.59;;;20.56;50.58
36502;BME280;25393;46.108;3.390;2023-05-10T13:32:22;97978.06;;;19.93;51.50
36502;BME280;25393;46.108;3.390;2023-05-10T13:34:48;98006.94;;;19.68;51.29
36502;BME280;25393;46.108;3.390;2023-05-10T13:37:15;97969.44;;;18.88;49.64
36502;BME280;25393;46.108;3.390;2023-05-10T13:39:49;97983.28;;;18.67;49.83
36502;BME280;25393;46.108;3.390;2023-05-10T13:42:19;97989.81;;;18.96;50.86